sensor_id;sensor_type;location;lat;lon;timestamp;P1;durP1;ratioP1;P2;durP2;ratioP2
16667;SDS011;8447;52.630;4.734;2023-05-10T00:00:08;8.67;;;3.80;;
16667;SDS011;8447;52.630;4.734;2023-05-10T00:02:35;8.00;;;4.43;;
16667;SDS011;8447;52.630;4.734;2023-05-10T00:05:01;10.93;;;3.60;;
16667;SDS011;8447;52.630;4.734;2023-05-10T00:07:28;7.03;;;3.23;;
16667;SDS011;8447;52.630;4.734;2023-05-10T00:09:54;6.90;;;3.93;;
16667;SDS011;8447;52.630;4.734;2023-05-10T00:12:22;7.60;;;3.37;;
16667;SDS011;8447;52.630;4.734;2023-05-10T00:14:48;5.30;;;3.00;;
16667;SDS011;8447;52.630;4.734;2023-05-10T00:17:15;8.07;;;3.80;;
16667;SDS011;8447;52.630;4.734;2023-05-10T00:19:41;7.13;;;4.17;;
16667;SDS011;8447;52.630;4.734;2023-05-10T00:22:07;7.27;;;3.77;;
16667;SDS011;8447;52.630;4.734;2023-05-10T00:24:34;6.77;;;4.10;;
16667;SDS011;8447;52.630;4.734;2023-05-10T00:27:00;7.80;;;3.93;;
16667;SDS011;8447;52.630;4.734;2023-05-10T00:29:30;7.10;;;4.13;;
16667;SDS011;8447;52.630;4.734;2023-05-10T00:31:56;10.93;;;4.60;;
16667;SDS011;8447;52.630;4.734;2023-05-10T00:34:23;9.70;;;4.53;;
16667;SDS011;8447;52.630;4.734;2023-05-10T00:36:49;8.50;;;4.60;;
16667;SDS011;8447;52.630;4.734;2023-05-10T00:39:16;9.27;;;4.40;;
16667;SDS011;8447;52.630;4.734;2023-05-10T00:41:42;9.97;;;4.63;;
16667;SDS011;8447;52.630;4.734;2023-05-10T00:44:08;11.80;;;4.13;;
16667;SDS011;8447;52.630;4.734;2023-05-10T00:46:36;9.43;;;4.60;;
16667;SDS011;8447;52.630;4.734;2023-05-10T00:49:03;8.13;;;4.03;;
16667;SDS011;8447;52.630;4.734;2023-05-10T00:51:29;8.87;;;4.57;;
16667;SDS011;8447;52.630;4.734;2023-05-10T00:53:56;11.10;;;4.10;;
16667;SDS011;8447;52.630;4.734;2023-05-10T00:56:23;9.33;;;4.17;;
16667;SDS011;8447;52.630;4.734;2023-05-10T00:58:49;9.30;;;4.50;;
16667;SDS011;8447;52.630;4.734;2023-05-10T01:01:16;12.27;;;4.00;;
16667;SDS011;8447;52.630;4.734;2023-05-10T01:03:44;10.77;;;4.57;;
16667;SDS011;8447;52.630;4.734;2023-05-10T01:06:10;11.93;;;5.50;;
16667;SDS011;8447;52.630;4.734;2023-05-10T01:08:36;11.27;;;5.53;;
16667;SDS011;8447;52.630;4.734;2023-05-10T01:11:03;9.67;;;5.63;;
16667;SDS011;8447;52.630;4.734;2023-05-10T01:13:30;11.83;;;6.63;;
16667;SDS011;8447;52.630;4.734;2023-05-10T01:15:57;9.93;;;4.67;;
16667;SDS011;8447;52.630;4.734;2023-05-10T01:18:24;5.20;;;3.73;;
16667;SDS011;8447;52.630;4.734;2023-05-10T01:20:54;4.70;;;3.60;;
16667;SDS011;8447;52.630;4.734;2023-05-10T01:23:41;5.13;;;3.63;;
16667;SDS011;8447;52.630;4.734;2023-05-10T01:29:14;5.37;;;3.03;;
16667;SDS011;8447;52.630;4.734;2023-05-10T01:34:41;6.30;;;3.33;;
16667;SDS011;8447;52.630;4.734;2023-05-10T01:37:10;8.37;;;3.93;;
16667;SDS011;8447;52.630;4.734;2023-05-10T01:39:40;5.77;;;3.77;;
16667;SDS011;8447;52.630;4.734;2023-05-10T01:42:10;11.57;;;3.97;;
16667;SDS011;8447;52.630;4.734;2023-05-10T01:44:37;8.27;;;3.77;;
16667;SDS011;8447;52.630;4.734;2023-05-10T01:47:06;5.73;;;3.67;;
16667;SDS011;8447;52.630;4.734;2023-05-10T01:49:34;6.10;;;4.00;;
16667;SDS011;8447;52.630;4.734;2023-05-10T01:52:06;11.43;;;3.23;;
16667;SDS011;8447;52.630;4.734;2023-05-10T01:54:33;6.40;;;3.30;;
16667;SDS011;8447;52.630;4.734;2023-05-10T01:57:01;4.90;;;2.80;;
16667;SDS011;8447;52.630;4.734;2023-05-10T01:59:29;7.60;;;3.27;;
16667;SDS011;8447;52.630;4.734;2023-05-10T02:01:57;5.03;;;3.00;;
16667;SDS011;8447;52.630;4.734;2023-05-10T02:04:24;7.40;;;4.03;;
16667;SDS011;8447;52.630;4.734;2023-05-10T02:06:51;5.27;;;2.90;;
16667;SDS011;8447;52.630;4.734;2023-05-10T02:09:20;7.33;;;3.17;;
16667;SDS011;8447;52.630;4.734;2023-05-10T02:11:47;7.17;;;3.00;;
16667;SDS011;8447;52.630;4.734;2023-05-10T02:14:14;3.80;;;2.63;;
16667;SDS011;8447;52.630;4.734;2023-05-10T02:16:41;5.33;;;2.93;;
16667;SDS011;8447;52.630;4.734;2023-05-10T02:19:09;5.10;;;3.17;;
16667;SDS011;8447;52.630;4.734;2023-05-10T02:21:36;2.57;;;1.87;;
16667;SDS011;8447;52.630;4.734;2023-05-10T02:24:03;4.13;;;1.90;;
16667;SDS011;8447;52.630;4.734;2023-05-10T02:26:32;1.90;;;1.50;;
16667;SDS011;8447;52.630;4.734;2023-05-10T02:29:00;3.03;;;1.90;;
16667;SDS011;8447;52.630;4.734;2023-05-10T02:31:28;2.60;;;1.93;;
16667;SDS011;8447;52.630;4.734;2023-05-10T02:33:55;3.77;;;1.83;;
16667;SDS011;8447;52.630;4.734;2023-05-10T02:36:22;2.53;;;1.93;;
16667;SDS011;8447;52.630;4.734;2023-05-10T02:38:49;2.20;;;1.60;;
16667;SDS011;8447;52.630;4.734;2023-05-10T02:41:16;3.67;;;1.83;;
16667;SDS011;8447;52.630;4.734;2023-05-10T02:43:45;3.47;;;1.43;;
16667;SDS011;8447;52.630;4.734;2023-05-10T02:46:12;3.17;;;1.70;;
16667;SDS011;8447;52.630;4.734;2023-05-10T02:48:38;3.67;;;2.00;;
16667;SDS011;8447;52.630;4.734;2023-05-10T02:51:05;2.23;;;2.00;;
16667;SDS011;8447;52.630;4.734;2023-05-10T02:53:33;2.80;;;1.93;;
16667;SDS011;8447;52.630;4.734;2023-05-10T02:56:01;2.70;;;1.70;;
16667;SDS011;8447;52.630;4.734;2023-05-10T02:58:32;3.30;;;1.83;;
16667;SDS011;8447;52.630;4.734;2023-05-10T03:01:00;5.97;;;2.50;;
16667;SDS011;8447;52.630;4.734;2023-05-10T03:03:26;3.17;;;2.10;;
16667;SDS011;8447;52.630;4.734;2023-05-10T03:05:53;3.50;;;2.17;;
16667;SDS011;8447;52.630;4.734;2023-05-10T03:08:20;3.23;;;2.03;;
16667;SDS011;8447;52.630;4.734;2023-05-10T03:11:01;3.33;;;2.37;;
16667;SDS011;8447;52.630;4.734;2023-05-10T03:13:34;5.53;;;3.03;;
16667;SDS011;8447;52.630;4.734;2023-05-10T03:16:06;3.97;;;2.53;;
16667;SDS011;8447;52.630;4.734;2023-05-10T03:18:36;3.87;;;2.83;;
16667;SDS011;8447;52.630;4.734;2023-05-10T03:21:05;3.97;;;2.90;;
16667;SDS011;8447;52.630;4.734;2023-05-10T03:23:35;5.33;;;3.30;;
16667;SDS011;8447;52.630;4.734;2023-05-10T03:26:05;8.97;;;2.80;;
16667;SDS011;8447;52.630;4.734;2023-05-10T03:28:33;5.20;;;3.27;;
16667;SDS011;8447;52.630;4.734;2023-05-10T03:31:00;5.03;;;3.03;;
16667;SDS011;8447;52.630;4.734;2023-05-10T03:33:28;6.53;;;3.47;;
16667;SDS011;8447;52.630;4.734;2023-05-10T03:35:54;9.83;;;4.13;;
16667;SDS011;8447;52.630;4.734;2023-05-10T03:38:21;8.07;;;3.83;;
16667;SDS011;8447;52.630;4.734;2023-05-10T03:40:47;6.27;;;3.50;;
16667;SDS011;8447;52.630;4.734;2023-05-10T03:43:14;5.67;;;3.87;;
16667;SDS011;8447;52.630;4.734;2023-05-10T03:45:40;6.80;;;3.47;;
16667;SDS011;8447;52.630;4.734;2023-05-10T03:48:06;6.87;;;3.83;;
16667;SDS011;8447;52.630;4.734;2023-05-10T03:50:34;4.40;;;3.07;;
16667;SDS011;8447;52.630;4.734;2023-05-10T03:53:00;4.53;;;3.10;;
16667;SDS011;8447;52.630;4.734;2023-05-10T03:55:27;5.10;;;2.60;;
16667;SDS011;8447;52.630;4.734;2023-05-10T03:57:54;4.33;;;3.10;;
16667;SDS011;8447;52.630;4.734;2023-05-10T04:00:21;3.23;;;2.93;;
16667;SDS011;8447;52.630;4.734;2023-05-10T04:02:47;4.17;;;2.97;;
16667;SDS011;8447;52.630;4.734;2023-05-10T04:05:13;3.83;;;2.87;;
16667;SDS011;8447;52.630;4.734;2023-05-10T04:07:41;4.57;;;3.07;;
16667;SDS011;8447;52.630;4.734;2023-05-10T04:10:09;5.23;;;3.40;;
16667;SDS011;8447;52.630;4.734;2023-05-10T04:12:36;4.83;;;3.20;;
16667;SDS011;8447;52.630;4.734;2023-05-10T04:15:02;5.87;;;3.73;;
16667;SDS011;8447;52.630;4.734;2023-05-10T04:17:29;5.27;;;3.83;;
16667;SDS011;8447;52.630;4.734;2023-05-10T04:19:56;5.67;;;4.00;;
16667;SDS011;8447;52.630;4.734;2023-05-10T04:22:22;7.07;;;4.60;;
16667;SDS011;8447;52.630;4.734;2023-05-10T04:24:50;5.60;;;3.90;;
16667;SDS011;8447;52.630;4.734;2023-05-10T04:27:16;4.83;;;3.60;;
16667;SDS011;8447;52.630;4.734;2023-05-10T04:29:43;5.27;;;3.67;;
16667;SDS011;8447;52.630;4.734;2023-05-10T04:32:09;5.00;;;4.00;;
16667;SDS011;8447;52.630;4.734;2023-05-10T04:34:36;6.37;;;4.30;;
16667;SDS011;8447;52.630;4.734;2023-05-10T04:37:02;4.90;;;3.60;;
16667;SDS011;8447;52.630;4.734;2023-05-10T04:39:28;5.37;;;4.43;;
16667;SDS011;8447;52.630;4.734;2023-05-10T04:41:56;5.80;;;4.73;;
16667;SDS011;8447;52.630;4.734;2023-05-10T04:44:23;5.77;;;3.93;;
16667;SDS011;8447;52.630;4.734;2023-05-10T04:46:49;6.53;;;4.50;;
16667;SDS011;8447;52.630;4.734;2023-05-10T04:49:15;7.83;;;5.03;;
16667;SDS011;8447;52.630;4.734;2023-05-10T04:51:42;5.60;;;4.80;;
16667;SDS011;8447;52.630;4.734;2023-05-10T04:54:09;5.67;;;4.23;;
16667;SDS011;8447;52.630;4.734;2023-05-10T04:56:35;4.83;;;4.30;;
16667;SDS011;8447;52.630;4.734;2023-05-10T04:59:03;6.03;;;4.70;;
16667;SDS011;8447;52.630;4.734;2023-05-10T05:01:29;7.23;;;4.60;;
16667;SDS011;8447;52.630;4.734;2023-05-10T05:03:56;7.13;;;5.13;;
16667;SDS011;8447;52.630;4.734;2023-05-10T05:06:22;5.17;;;4.57;;
16667;SDS011;8447;52.630;4.734;2023-05-10T05:08:49;5.87;;;4.80;;
16667;SDS011;8447;52.630;4.734;2023-05-10T05:11:16;5.33;;;4.07;;
16667;SDS011;8447;52.630;4.734;2023-05-10T05:13:42;5.50;;;4.40;;
16667;SDS011;8447;52.630;4.734;2023-05-10T05:16:10;6.83;;;4.70;;
16667;SDS011;8447;52.630;4.734;2023-05-10T05:18:39;5.00;;;4.30;;
16667;SDS011;8447;52.630;4.734;2023-05-10T05:21:13;5.00;;;4.40;;
16667;SDS011;8447;52.630;4.734;2023-05-10T05:23:39;9.37;;;4.23;;
16667;SDS011;8447;52.630;4.734;2023-05-10T05:26:06;4.93;;;3.70;;
16667;SDS011;8447;52.630;4.734;2023-05-10T05:28:32;4.57;;;3.77;;
16667;SDS011;8447;52.630;4.734;2023-05-10T05:31:02;5.03;;;4.30;;
16667;SDS011;8447;52.630;4.734;2023-05-10T05:33:31;6.17;;;4.37;;
16667;SDS011;8447;52.630;4.734;2023-05-10T05:36:00;6.37;;;4.30;;
16667;SDS011;8447;52.630;4.734;2023-05-10T05:38:27;6.50;;;5.10;;
16667;SDS011;8447;52.630;4.734;2023-05-10T05:40:53;8.83;;;4.70;;
16667;SDS011;8447;52.630;4.734;2023-05-10T05:43:20;6.53;;;4.77;;
16667;SDS011;8447;52.630;4.734;2023-05-10T05:45:46;5.40;;;4.20;;
16667;SDS011;8447;52.630;4.734;2023-05-10T05:48:12;5.53;;;4.43;;
16667;SDS011;8447;52.630;4.734;2023-05-10T05:50:40;5.57;;;4.27;;
16667;SDS011;8447;52.630;4.734;2023-05-10T05:53:07;6.43;;;4.47;;
16667;SDS011;8447;52.630;4.734;2023-05-10T05:55:33;7.80;;;4.90;;
16667;SDS011;8447;52.630;4.734;2023-05-10T05:58:00;5.87;;;4.20;;
16667;SDS011;8447;52.630;4.734;2023-05-10T06:00:26;5.77;;;4.40;;
16667;SDS011;8447;52.630;4.734;2023-05-10T06:02:53;4.97;;;4.47;;
16667;SDS011;8447;52.630;4.734;2023-05-10T06:05:19;4.80;;;3.93;;
16667;SDS011;8447;52.630;4.734;2023-05-10T06:07:47;9.20;;;4.23;;
16667;SDS011;8447;52.630;4.734;2023-05-10T06:10:14;4.87;;;4.37;;
16667;SDS011;8447;52.630;4.734;2023-05-10T06:12:40;7.63;;;4.30;;
16667;SDS011;8447;52.630;4.734;2023-05-10T06:15:07;6.10;;;4.17;;
16667;SDS011;8447;52.630;4.734;2023-05-10T06:17:33;5.83;;;4.37;;
16667;SDS011;8447;52.630;4.734;2023-05-10T06:20:00;5.93;;;4.73;;
16667;SDS011;8447;52.630;4.734;2023-05-10T06:22:26;5.90;;;4.80;;
16667;SDS011;8447;52.630;4.734;2023-05-10T06:24:54;5.93;;;3.87;;
16667;SDS011;8447;52.630;4.734;2023-05-10T06:27:20;7.67;;;4.50;;
16667;SDS011;8447;52.630;4.734;2023-05-10T06:29:47;9.73;;;4.80;;
16667;SDS011;8447;52.630;4.734;2023-05-10T06:32:13;5.33;;;4.30;;
16667;SDS011;8447;52.630;4.734;2023-05-10T06:34:39;7.20;;;4.53;;
16667;SDS011;8447;52.630;4.734;2023-05-10T06:37:06;6.60;;;4.40;;
16667;SDS011;8447;52.630;4.734;2023-05-10T06:39:32;5.57;;;4.37;;
16667;SDS011;8447;52.630;4.734;2023-05-10T06:42:00;4.73;;;3.83;;
16667;SDS011;8447;52.630;4.734;2023-05-10T06:44:27;4.73;;;4.17;;
16667;SDS011;8447;52.630;4.734;2023-05-10T06:46:54;6.43;;;4.40;;
16667;SDS011;8447;52.630;4.734;2023-05-10T06:49:20;8.10;;;4.57;;
16667;SDS011;8447;52.630;4.734;2023-05-10T06:51:47;6.60;;;4.40;;
16667;SDS011;8447;52.630;4.734;2023-05-10T06:54:14;7.40;;;3.80;;
16667;SDS011;8447;52.630;4.734;2023-05-10T06:56:40;9.97;;;4.40;;
16667;SDS011;8447;52.630;4.734;2023-05-10T06:59:08;5.67;;;3.97;;
16667;SDS011;8447;52.630;4.734;2023-05-10T07:01:34;5.00;;;3.97;;
16667;SDS011;8447;52.630;4.734;2023-05-10T07:04:00;6.57;;;4.03;;
16667;SDS011;8447;52.630;4.734;2023-05-10T07:06:27;6.50;;;4.30;;
16667;SDS011;8447;52.630;4.734;2023-05-10T07:08:53;5.50;;;4.10;;
16667;SDS011;8447;52.630;4.734;2023-05-10T07:11:20;5.37;;;4.30;;
16667;SDS011;8447;52.630;4.734;2023-05-10T07:13:46;4.23;;;3.67;;
16667;SDS011;8447;52.630;4.734;2023-05-10T07:16:14;8.07;;;4.50;;
16667;SDS011;8447;52.630;4.734;2023-05-10T07:18:41;6.13;;;4.07;;
16667;SDS011;8447;52.630;4.734;2023-05-10T07:21:08;5.97;;;4.13;;
16667;SDS011;8447;52.630;4.734;2023-05-10T07:23:34;6.77;;;4.30;;
16667;SDS011;8447;52.630;4.734;2023-05-10T07:26:01;5.37;;;4.13;;
16667;SDS011;8447;52.630;4.734;2023-05-10T07:28:27;4.50;;;3.63;;
16667;SDS011;8447;52.630;4.734;2023-05-10T07:30:53;4.63;;;3.60;;
16667;SDS011;8447;52.630;4.734;2023-05-10T07:33:21;4.33;;;3.93;;
16667;SDS011;8447;52.630;4.734;2023-05-10T07:35:47;6.03;;;4.37;;
16667;SDS011;8447;52.630;4.734;2023-05-10T07:38:14;4.70;;;4.10;;
16667;SDS011;8447;52.630;4.734;2023-05-10T07:40:40;7.40;;;4.60;;
16667;SDS011;8447;52.630;4.734;2023-05-10T07:43:06;6.70;;;4.33;;
16667;SDS011;8447;52.630;4.734;2023-05-10T07:45:33;6.40;;;4.13;;
16667;SDS011;8447;52.630;4.734;2023-05-10T07:47:59;6.33;;;4.63;;
16667;SDS011;8447;52.630;4.734;2023-05-10T07:50:27;5.77;;;4.13;;
16667;SDS011;8447;52.630;4.734;2023-05-10T07:52:54;4.20;;;3.23;;
16667;SDS011;8447;52.630;4.734;2023-05-10T07:55:20;7.27;;;4.50;;
16667;SDS011;8447;52.630;4.734;2023-05-10T07:57:47;5.67;;;4.10;;
16667;SDS011;8447;52.630;4.734;2023-05-10T08:00:13;5.50;;;4.03;;
16667;SDS011;8447;52.630;4.734;2023-05-10T08:02:42;6.23;;;4.00;;
16667;SDS011;8447;52.630;4.734;2023-05-10T08:05:09;4.70;;;4.20;;
16667;SDS011;8447;52.630;4.734;2023-05-10T08:07:36;5.67;;;3.73;;
16667;SDS011;8447;52.630;4.734;2023-05-10T08:10:03;4.10;;;3.33;;
16667;SDS011;8447;52.630;4.734;2023-05-10T08:12:30;4.73;;;3.43;;
16667;SDS011;8447;52.630;4.734;2023-05-10T08:14:56;5.47;;;3.53;;
16667;SDS011;8447;52.630;4.734;2023-05-10T08:17:22;4.47;;;3.03;;
16667;SDS011;8447;52.630;4.734;2023-05-10T08:19:49;5.20;;;3.07;;
16667;SDS011;8447;52.630;4.734;2023-05-10T08:22:15;6.27;;;3.77;;
16667;SDS011;8447;52.630;4.734;2023-05-10T08:24:43;7.83;;;3.67;;
16667;SDS011;8447;52.630;4.734;2023-05-10T08:27:09;4.67;;;4.10;;
16667;SDS011;8447;52.630;4.734;2023-05-10T08:29:36;5.67;;;3.90;;
16667;SDS011;8447;52.630;4.734;2023-05-10T08:32:03;6.47;;;4.17;;
16667;SDS011;8447;52.630;4.734;2023-05-10T08:34:29;6.53;;;4.33;;
16667;SDS011;8447;52.630;4.734;2023-05-10T08:36:56;8.30;;;4.57;;
16667;SDS011;8447;52.630;4.734;2023-05-10T08:39:22;5.90;;;4.10;;
16667;SDS011;8447;52.630;4.734;2023-05-10T08:41:51;4.77;;;4.20;;
16667;SDS011;8447;52.630;4.734;2023-05-10T08:44:17;4.80;;;2.93;;
16667;SDS011;8447;52.630;4.734;2023-05-10T08:46:44;7.63;;;4.23;;
16667;SDS011;8447;52.630;4.734;2023-05-10T08:49:13;7.03;;;4.27;;
16667;SDS011;8447;52.630;4.734;2023-05-10T08:51:40;6.53;;;4.77;;
16667;SDS011;8447;52.630;4.734;2023-05-10T08:54:10;6.27;;;4.43;;
16667;SDS011;8447;52.630;4.734;2023-05-10T08:56:36;6.97;;;5.50;;
16667;SDS011;8447;52.630;4.734;2023-05-10T08:59:04;6.77;;;4.83;;
16667;SDS011;8447;52.630;4.734;2023-05-10T09:01:31;8.60;;;5.90;;
16667;SDS011;8447;52.630;4.734;2023-05-10T09:03:57;7.27;;;4.67;;
16667;SDS011;8447;52.630;4.734;2023-05-10T09:06:24;8.70;;;5.33;;
16667;SDS011;8447;52.630;4.734;2023-05-10T09:08:50;10.40;;;5.70;;
16667;SDS011;8447;52.630;4.734;2023-05-10T09:11:18;8.17;;;5.13;;
16667;SDS011;8447;52.630;4.734;2023-05-10T09:13:45;8.97;;;5.80;;
16667;SDS011;8447;52.630;4.734;2023-05-10T09:16:14;6.87;;;5.30;;
16667;SDS011;8447;52.630;4.734;2023-05-10T09:18:41;6.97;;;4.70;;
16667;SDS011;8447;52.630;4.734;2023-05-10T09:21:07;8.23;;;5.07;;
16667;SDS011;8447;52.630;4.734;2023-05-10T09:23:34;9.87;;;5.90;;
16667;SDS011;8447;52.630;4.734;2023-05-10T09:26:02;6.77;;;4.70;;
16667;SDS011;8447;52.630;4.734;2023-05-10T09:28:31;7.33;;;5.23;;
16667;SDS011;8447;52.630;4.734;2023-05-10T09:30:57;9.20;;;5.67;;
16667;SDS011;8447;52.630;4.734;2023-05-10T09:33:25;8.67;;;5.83;;
16667;SDS011;8447;52.630;4.734;2023-05-10T09:35:51;7.03;;;5.20;;
16667;SDS011;8447;52.630;4.734;2023-05-10T09:38:18;8.43;;;5.40;;
16667;SDS011;8447;52.630;4.734;2023-05-10T09:40:50;8.33;;;6.40;;
16667;SDS011;8447;52.630;4.734;2023-05-10T09:43:19;7.80;;;3.93;;
16667;SDS011;8447;52.630;4.734;2023-05-10T09:45:46;9.40;;;6.07;;
16667;SDS011;8447;52.630;4.734;2023-05-10T09:48:14;9.53;;;6.07;;
16667;SDS011;8447;52.630;4.734;2023-05-10T09:50:41;8.33;;;6.10;;
16667;SDS011;8447;52.630;4.734;2023-05-10T09:53:08;8.83;;;5.73;;
16667;SDS011;8447;52.630;4.734;2023-05-10T09:55:41;8.67;;;6.03;;
16667;SDS011;8447;52.630;4.734;2023-05-10T09:58:09;10.83;;;6.67;;
16667;SDS011;8447;52.630;4.734;2023-05-10T10:00:36;8.83;;;6.60;;
16667;SDS011;8447;52.630;4.734;2023-05-10T10:03:03;10.40;;;6.50;;
16667;SDS011;8447;52.630;4.734;2023-05-10T10:05:29;10.80;;;7.03;;
16667;SDS011;8447;52.630;4.734;2023-05-10T10:07:58;8.87;;;6.07;;
16667;SDS011;8447;52.630;4.734;2023-05-10T10:10:24;9.37;;;6.43;;
16667;SDS011;8447;52.630;4.734;2023-05-10T10:12:50;9.63;;;6.57;;
16667;SDS011;8447;52.630;4.734;2023-05-10T10:15:17;9.10;;;6.77;;
16667;SDS011;8447;52.630;4.734;2023-05-10T10:17:44;10.03;;;6.27;;
16667;SDS011;8447;52.630;4.734;2023-05-10T10:20:11;7.93;;;5.57;;
16667;SDS011;8447;52.630;4.734;2023-05-10T10:22:37;9.00;;;6.30;;
16667;SDS011;8447;52.630;4.734;2023-05-10T10:25:05;7.70;;;5.17;;
16667;SDS011;8447;52.630;4.734;2023-05-10T10:27:36;9.73;;;6.40;;
16667;SDS011;8447;52.630;4.734;2023-05-10T10:30:08;9.23;;;5.43;;
16667;SDS011;8447;52.630;4.734;2023-05-10T10:32:40;8.67;;;5.30;;
16667;SDS011;8447;52.630;4.734;2023-05-10T10:35:11;8.07;;;5.80;;
16667;SDS011;8447;52.630;4.734;2023-05-10T10:37:42;7.47;;;4.40;;
16667;SDS011;8447;52.630;4.734;2023-05-10T10:40:26;7.43;;;5.80;;
16667;SDS011;8447;52.630;4.734;2023-05-10T10:42:53;11.20;;;6.10;;
16667;SDS011;8447;52.630;4.734;2023-05-10T10:45:20;9.23;;;6.17;;
16667;SDS011;8447;52.630;4.734;2023-05-10T10:47:47;6.70;;;4.73;;
16667;SDS011;8447;52.630;4.734;2023-05-10T10:50:13;4.67;;;4.07;;
16667;SDS011;8447;52.630;4.734;2023-05-10T10:52:41;4.80;;;4.30;;
16667;SDS011;8447;52.630;4.734;2023-05-10T10:55:08;5.73;;;4.00;;
16667;SDS011;8447;52.630;4.734;2023-05-10T10:57:47;4.73;;;3.70;;
16667;SDS011;8447;52.630;4.734;2023-05-10T11:00:23;4.60;;;3.90;;
16667;SDS011;8447;52.630;4.734;2023-05-10T11:02:51;6.43;;;4.17;;
16667;SDS011;8447;52.630;4.734;2023-05-10T11:08:18;4.43;;;3.80;;
16667;SDS011;8447;52.630;4.734;2023-05-10T11:10:51;4.30;;;3.90;;
16667;SDS011;8447;52.630;4.734;2023-05-10T11:13:27;5.03;;;3.80;;
16667;SDS011;8447;52.630;4.734;2023-05-10T11:15:55;5.23;;;3.40;;
16667;SDS011;8447;52.630;4.734;2023-05-10T11:18:24;5.13;;;3.10;;
16667;SDS011;8447;52.630;4.734;2023-05-10T11:20:50;3.53;;;2.87;;
16667;SDS011;8447;52.630;4.734;2023-05-10T11:23:17;4.40;;;4.00;;
16667;SDS011;8447;52.630;4.734;2023-05-10T11:25:45;3.87;;;3.30;;
16667;SDS011;8447;52.630;4.734;2023-05-10T11:28:12;5.23;;;2.90;;
16667;SDS011;8447;52.630;4.734;2023-05-10T11:30:40;3.70;;;2.87;;
16667;SDS011;8447;52.630;4.734;2023-05-10T11:33:07;4.23;;;3.47;;
16667;SDS011;8447;52.630;4.734;2023-05-10T11:35:36;3.37;;;3.07;;
16667;SDS011;8447;52.630;4.734;2023-05-10T11:38:05;5.20;;;3.53;;
16667;SDS011;8447;52.630;4.734;2023-05-10T11:40:31;2.87;;;2.50;;
16667;SDS011;8447;52.630;4.734;2023-05-10T11:42:58;3.97;;;3.30;;
16667;SDS011;8447;52.630;4.734;2023-05-10T11:45:25;3.83;;;2.90;;
16667;SDS011;8447;52.630;4.734;2023-05-10T11:47:55;3.57;;;3.17;;
16667;SDS011;8447;52.630;4.734;2023-05-10T11:50:22;4.87;;;3.20;;
16667;SDS011;8447;52.630;4.734;2023-05-10T11:52:50;5.63;;;3.13;;
16667;SDS011;8447;52.630;4.734;2023-05-10T11:55:16;4.73;;;3.00;;
16667;SDS011;8447;52.630;4.734;2023-05-10T11:57:43;5.43;;;3.30;;
16667;SDS011;8447;52.630;4.734;2023-05-10T12:00:11;4.00;;;2.53;;
16667;SDS011;8447;52.630;4.734;2023-05-10T12:02:38;5.60;;;2.50;;
16667;SDS011;8447;52.630;4.734;2023-05-10T12:05:06;2.80;;;2.50;;
16667;SDS011;8447;52.630;4.734;2023-05-10T12:07:33;3.20;;;2.40;;
16667;SDS011;8447;52.630;4.734;2023-05-10T12:10:04;3.83;;;2.90;;
16667;SDS011;8447;52.630;4.734;2023-05-10T12:12:35;3.70;;;2.90;;
16667;SDS011;8447;52.630;4.734;2023-05-10T12:15:01;3.83;;;3.13;;
16667;SDS011;8447;52.630;4.734;2023-05-10T12:17:28;2.73;;;2.40;;
16667;SDS011;8447;52.630;4.734;2023-05-10T12:19:58;5.13;;;2.47;;
16667;SDS011;8447;52.630;4.734;2023-05-10T12:22:26;2.33;;;1.90;;
16667;SDS011;8447;52.630;4.734;2023-05-10T12:24:53;2.30;;;1.87;;
16667;SDS011;8447;52.630;4.734;2023-05-10T12:27:19;2.93;;;2.30;;
16667;SDS011;8447;52.630;4.734;2023-05-10T12:29:46;3.87;;;2.20;;
16667;SDS011;8447;52.630;4.734;2023-05-10T12:32:14;3.10;;;2.77;;
16667;SDS011;8447;52.630;4.734;2023-05-10T12:34:40;2.97;;;2.30;;
16667;SDS011;8447;52.630;4.734;2023-05-10T12:37:06;3.00;;;2.53;;
16667;SDS011;8447;52.630;4.734;2023-05-10T12:39:41;3.70;;;2.80;;
16667;SDS011;8447;52.630;4.734;2023-05-10T12:42:07;2.50;;;2.20;;
16667;SDS011;8447;52.630;4.734;2023-05-10T12:44:33;2.20;;;2.00;;
16667;SDS011;8447;52.630;4.734;2023-05-10T12:47:00;3.43;;;3.10;;
16667;SDS011;8447;52.630;4.734;2023-05-10T12:49:26;3.53;;;2.87;;
16667;SDS011;8447;52.630;4.734;2023-05-10T12:51:52;3.23;;;2.87;;
16667;SDS011;8447;52.630;4.734;2023-05-10T12:54:19;2.73;;;2.30;;
16667;SDS011;8447;52.630;4.734;2023-05-10T12:56:48;3.00;;;2.30;;
16667;SDS011;8447;52.630;4.734;2023-05-10T12:59:14;2.67;;;2.47;;
16667;SDS011;8447;52.630;4.734;2023-05-10T13:01:41;2.50;;;1.90;;
16667;SDS011;8447;52.630;4.734;2023-05-10T13:04:07;2.53;;;2.10;;
16667;SDS011;8447;52.630;4.734;2023-05-10T13:06:33;4.13;;;2.67;;
16667;SDS011;8447;52.630;4.734;2023-05-10T13:09:00;4.27;;;2.80;;
16667;SDS011;8447;52.630;4.734;2023-05-10T13:11:26;2.30;;;2.10;;
16667;SDS011;8447;52.630;4.734;2023-05-10T13:13:54;2.53;;;2.10;;
16667;SDS011;8447;52.630;4.734;2023-05-10T13:16:21;3.60;;;2.50;;
16667;SDS011;8447;52.630;4.734;2023-05-10T13:18:47;3.13;;;2.67;;
16667;SDS011;8447;52.630;4.734;2023-05-10T13:21:13;3.23;;;2.60;;
16667;SDS011;8447;52.630;4.734;2023-05-10T13:23:40;2.97;;;2.70;;
16667;SDS011;8447;52.630;4.734;2023-05-10T13:26:06;3.00;;;2.50;;
16667;SDS011;8447;52.630;4.734;2023-05-10T13:28:32;4.03;;;2.87;;
16667;SDS011;8447;52.630;4.734;2023-05-10T13:31:00;3.37;;;2.60;;
16667;SDS011;8447;52.630;4.734;2023-05-10T13:33:27;4.43;;;2.97;;
16667;SDS011;8447;52.630;4.734;2023-05-10T13:35:53;3.20;;;2.30;;
16667;SDS011;8447;52.630;4.734;2023-05-10T13:38:19;3.70;;;2.77;;
16667;SDS011;8447;52.630;4.734;2023-05-10T13:40:46;3.53;;;2.63;;
16667;SDS011;8447;52.630;4.734;2023-05-10T13:43:12;2.83;;;2.00;;
16667;SDS011;8447;52.630;4.734;2023-05-10T13:45:38;3.23;;;2.47;;
16667;SDS011;8447;52.630;4.734;2023-05-10T13:48:08;2.10;;;1.90;;
16667;SDS011;8447;52.630;4.734;2023-05-10T13:50:35;4.87;;;2.37;;
16667;SDS011;8447;52.630;4.734;2023-05-10T13:53:01;3.90;;;3.00;;
16667;SDS011;8447;52.630;4.734;2023-05-10T13:55:28;3.57;;;2.40;;
16667;SDS011;8447;52.630;4.734;2023-05-10T13:57:55;6.30;;;2.80;;
16667;SDS011;8447;52.630;4.734;2023-05-10T14:00:22;4.57;;;2.10;;
16667;SDS011;8447;52.630;4.734;2023-05-10T14:02:50;3.03;;;2.20;;
16667;SDS011;8447;52.630;4.734;2023-05-10T14:05:18;3.00;;;2.70;;
16667;SDS011;8447;52.630;4.734;2023-05-10T14:07:45;4.10;;;2.80;;
16667;SDS011;8447;52.630;4.734;2023-05-10T14:10:11;4.20;;;2.60;;
16667;SDS011;8447;52.630;4.734;2023-05-10T14:12:38;8.90;;;3.43;;
16667;SDS011;8447;52.630;4.734;2023-05-10T14:15:04;4.00;;;2.73;;
16667;SDS011;8447;52.630;4.734;2023-05-10T14:17:31;6.30;;;3.23;;
16667;SDS011;8447;52.630;4.734;2023-05-10T14:19:58;2.97;;;2.67;;
16667;SDS011;8447;52.630;4.734;2023-05-10T14:22:25;3.37;;;2.50;;
16667;SDS011;8447;52.630;4.734;2023-05-10T14:24:52;4.43;;;3.27;;
16667;SDS011;8447;52.630;4.734;2023-05-10T14:27:18;3.27;;;2.80;;
16667;SDS011;8447;52.630;4.734;2023-05-10T14:29:44;4.30;;;1.90;;
16667;SDS011;8447;52.630;4.734;2023-05-10T14:32:11;3.77;;;2.13;;
16667;SDS011;8447;52.630;4.734;2023-05-10T14:34:37;5.77;;;2.70;;
16667;SDS011;8447;52.630;4.734;2023-05-10T14:37:03;3.43;;;2.70;;
16667;SDS011;8447;52.630;4.734;2023-05-10T14:39:32;5.10;;;3.30;;
16667;SDS011;8447;52.630;4.734;2023-05-10T14:41:58;3.57;;;2.93;;
16667;SDS011;8447;52.630;4.734;2023-05-10T14:44:24;4.03;;;2.93;;
16667;SDS011;8447;52.630;4.734;2023-05-10T14:46:51;5.00;;;3.10;;
16667;SDS011;8447;52.630;4.734;2023-05-10T14:49:17;3.00;;;2.47;;
16667;SDS011;8447;52.630;4.734;2023-05-10T14:51:44;3.67;;;3.10;;
16667;SDS011;8447;52.630;4.734;2023-05-10T14:54:10;4.30;;;2.50;;
16667;SDS011;8447;52.630;4.734;2023-05-10T14:56:38;2.90;;;2.60;;
16667;SDS011;8447;52.630;4.734;2023-05-10T14:59:06;3.07;;;2.60;;
16667;SDS011;8447;52.630;4.734;2023-05-10T15:01:32;3.43;;;2.90;;
16667;SDS011;8447;52.630;4.734;2023-05-10T15:04:02;2.90;;;2.60;;
16667;SDS011;8447;52.630;4.734;2023-05-10T15:06:30;3.37;;;3.03;;
16667;SDS011;8447;52.630;4.734;2023-05-10T15:08:56;3.40;;;3.10;;